createdAt,value
2022-12-11T00:01:15.192Z,36.97
2022-12-11T00:03:48.255Z,36.78
2022-12-11T00:06:19.185Z,36.79
2022-12-11T00:08:52.930Z,36.61
2022-12-11T00:11:23.503Z,36.77
2022-12-11T00:13:51.818Z,36.95
2022-12-11T00:16:25.224Z,37.25
2022-12-11T00:18:56.535Z,36.88
2022-12-11T00:21:25.232Z,37.08
2022-12-11T00:23:56.525Z,37.17
2022-12-11T00:26:24.773Z,35.75
2022-12-11T00:28:54.968Z,36.79
2022-12-11T00:31:24.708Z,36.88
2022-12-11T00:33:53.194Z,36.96
2022-12-11T00:36:24.716Z,36.55
2022-12-11T00:38:52.980Z,35.69
2022-12-11T00:41:21.663Z,36.86
2022-12-11T00:43:49.885Z,36.85
2022-12-11T00:46:18.380Z,37.16
2022-12-11T00:48:48.749Z,36.95
2022-12-11T00:51:17.274Z,36.94
2022-12-11T00:53:46.790Z,36.77
2022-12-11T00:56:17.255Z,36.52
2022-12-11T00:58:45.826Z,36.84
2022-12-11T01:01:17.134Z,36.77
2022-12-11T01:03:45.597Z,36.82
2022-12-11T01:06:16.309Z,36.82
2022-12-11T01:08:46.981Z,36.60
2022-12-11T01:11:15.655Z,36.61
2022-12-11T01:13:44.160Z,36.48
2022-12-11T01:16:14.990Z,36.33
2022-12-11T01:18:43.495Z,36.36
2022-12-11T01:21:14.261Z,36.44
2022-12-11T01:23:42.473Z,36.13
2022-12-11T01:26:14.900Z,36.18
2022-12-11T01:28:43.328Z,36.42
2022-12-11T01:31:12.597Z,36.23
2022-12-11T01:33:41.263Z,36.23
2022-12-11T01:36:11.318Z,36.23
2022-12-11T01:38:39.429Z,36.03
2022-12-11T01:41:08.301Z,35.95
2022-12-11T01:43:57.391Z,34.99
2022-12-11T01:46:26.074Z,35.86
2022-12-11T01:48:55.267Z,35.88
2022-12-11T01:51:24.977Z,36.01
2022-12-11T01:53:56.647Z,35.95
2022-12-11T01:56:25.383Z,36.03
2022-12-11T01:58:59.888Z,35.65
2022-12-11T02:01:32.195Z,35.92
2022-12-11T02:04:01.283Z,36.13
2022-12-11T02:06:33.146Z,35.83
2022-12-11T02:09:01.995Z,36.18
2022-12-11T02:11:37.080Z,35.61
2022-12-11T02:14:10.943Z,35.99
2022-12-11T02:16:45.478Z,36.03
2022-12-11T02:19:22.468Z,35.91
2022-12-11T02:21:53.319Z,36.08
2022-12-11T02:24:28.771Z,35.65
2022-12-11T02:27:15.293Z,35.54
2022-12-11T02:29:49.619Z,36.15
2022-12-11T02:32:22.477Z,36.26
2022-12-11T02:34:55.871Z,36.01
2022-12-11T02:37:26.407Z,36.35
2022-12-11T02:39:56.063Z,36.33
2022-12-11T02:42:28.690Z,36.31
2022-12-11T02:45:00.722Z,36.15
2022-12-11T02:47:30.824Z,36.32
2022-12-11T02:50:01.349Z,36.25
2022-12-11T02:52:31.916Z,36.02
2022-12-11T02:55:01.071Z,36.36
2022-12-11T02:57:33.560Z,35.92
2022-12-11T03:00:03.680Z,36.27
2022-12-11T03:02:32.155Z,36.19
2022-12-11T03:05:00.856Z,36.15
2022-12-11T03:07:33.552Z,35.91
2022-12-11T03:10:02.183Z,36.43
2022-12-11T03:12:32.896Z,36.24
2022-12-11T03:15:03.774Z,35.99
2022-12-11T03:17:36.099Z,36.11
2022-12-11T03:20:10.781Z,35.88
2022-12-11T03:22:42.642Z,36.04
2022-12-11T03:25:14.301Z,36.19
2022-12-11T03:27:46.641Z,35.98
2022-12-11T03:30:19.324Z,35.74
2022-12-11T03:32:54.320Z,35.79
2022-12-11T03:35:26.936Z,35.96
2022-12-11T03:37:55.861Z,36.47
2022-12-11T03:40:25.791Z,36.37
2022-12-11T03:42:55.127Z,36.33
2022-12-11T03:45:26.255Z,35.84
2022-12-11T03:47:54.454Z,34.97
2022-12-11T03:50:24.219Z,35.83
2022-12-11T03:52:53.509Z,36.01
2022-12-11T03:55:22.836Z,35.96
2022-12-11T03:57:51.343Z,36.00
2022-12-11T04:00:21.432Z,35.80
2022-12-11T04:03:13.837Z,35.95
2022-12-11T04:05:43.171Z,36.31
2022-12-11T04:08:11.852Z,36.32
2022-12-11T04:10:40.571Z,36.25
2022-12-11T04:13:09.431Z,36.22
2022-12-11T04:15:37.560Z,36.32
2022-12-11T04:18:25.637Z,35.99
2022-12-11T04:21:12.727Z,36.18
2022-12-11T04:23:58.737Z,36.30
2022-12-11T04:26:26.968Z,36.31
2022-12-11T04:28:56.004Z,36.45
2022-12-11T04:31:24.270Z,36.22
2022-12-11T04:33:54.230Z,35.95
2022-12-11T04:36:22.476Z,36.15
2022-12-11T04:38:51.007Z,36.30
2022-12-11T04:41:19.235Z,36.31
2022-12-11T04:43:47.658Z,36.07
2022-12-11T04:46:18.652Z,35.95
2022-12-11T04:48:51.207Z,36.06
2022-12-11T04:51:23.521Z,35.79
2022-12-11T04:53:51.952Z,36.02
2022-12-11T04:56:20.468Z,35.85
2022-12-11T04:58:49.483Z,35.96
2022-12-11T05:01:19.777Z,36.07
2022-12-11T05:03:48.575Z,36.01
2022-12-11T05:06:17.179Z,36.03
2022-12-11T05:08:47.035Z,35.86
2022-12-11T05:11:16.859Z,35.92
2022-12-11T05:13:46.142Z,35.83
2022-12-11T05:16:17.061Z,35.78
2022-12-11T05:18:45.328Z,34.47
2022-12-11T05:21:15.593Z,35.40
2022-12-11T05:23:44.273Z,35.80
2022-12-11T05:26:15.963Z,35.76
2022-12-11T05:28:44.971Z,35.94
2022-12-11T05:31:15.309Z,35.91
2022-12-11T05:33:44.013Z,35.69
2022-12-11T05:36:15.232Z,35.52
2022-12-11T05:38:44.108Z,35.84
2022-12-11T05:41:15.269Z,35.56
2022-12-11T05:43:46.439Z,35.74
2022-12-11T05:46:16.871Z,35.71
2022-12-11T05:48:47.340Z,35.58
2022-12-11T05:51:16.947Z,35.51
2022-12-11T05:53:46.224Z,35.48
2022-12-11T05:56:16.988Z,35.38
2022-12-11T05:58:46.025Z,35.61
2022-12-11T06:01:16.198Z,35.62
2022-12-11T06:03:44.944Z,35.28
2022-12-11T06:06:13.191Z,35.34
2022-12-11T06:08:41.601Z,35.32
2022-12-11T06:11:09.762Z,35.26
2022-12-11T06:13:39.673Z,35.13
2022-12-11T06:16:09.341Z,35.06
2022-12-11T06:18:38.167Z,35.37
2022-12-11T06:21:18.218Z,34.62
2022-12-11T06:23:47.463Z,35.12
2022-12-11T06:26:16.363Z,35.14
2022-12-11T06:28:46.468Z,35.13
2022-12-11T06:31:15.675Z,35.19
2022-12-11T06:33:44.477Z,35.23
2022-12-11T06:36:14.414Z,35.21
2022-12-11T06:38:42.817Z,35.31
2022-12-11T06:41:11.522Z,35.33
2022-12-11T06:43:41.311Z,35.31
2022-12-11T06:46:12.602Z,35.03
2022-12-11T06:48:42.325Z,34.86
2022-12-11T06:51:11.647Z,34.78
2022-12-11T06:53:40.431Z,35.04
2022-12-11T06:56:10.514Z,34.94
2022-12-11T06:58:39.775Z,35.08
2022-12-11T07:01:17.263Z,34.30
2022-12-11T07:03:46.060Z,34.92
2022-12-11T07:06:14.296Z,34.93
2022-12-11T07:08:43.688Z,34.80
2022-12-11T07:11:13.890Z,34.59
2022-12-11T07:13:43.140Z,34.65
2022-12-11T07:16:13.115Z,34.57
2022-12-11T07:18:44.586Z,34.58
2022-12-11T07:21:14.404Z,34.63
2022-12-11T07:23:43.020Z,34.91
2022-12-11T07:26:12.940Z,34.58
2022-12-11T07:28:41.930Z,34.79
2022-12-11T07:31:11.735Z,34.64
2022-12-11T07:33:42.355Z,34.49
2022-12-11T07:36:12.079Z,34.69
2022-12-11T07:38:40.766Z,34.83
2022-12-11T07:41:13.542Z,34.58
2022-12-11T07:43:42.720Z,34.87
2022-12-11T07:46:13.456Z,34.52
2022-12-11T07:48:44.121Z,34.49
2022-12-11T07:51:12.963Z,34.61
2022-12-11T07:53:41.304Z,34.67
2022-12-11T07:56:09.718Z,34.61
2022-12-11T07:58:39.074Z,34.70
2022-12-11T08:01:07.699Z,34.41
2022-12-11T08:03:36.122Z,34.47
2022-12-11T08:06:06.885Z,34.24
2022-12-11T08:08:35.469Z,34.35
2022-12-11T08:11:03.981Z,34.13
2022-12-11T08:13:32.917Z,34.07
2022-12-11T08:16:04.844Z,33.69
2022-12-11T08:18:34.725Z,34.06
2022-12-11T08:21:07.865Z,33.71
2022-12-11T08:23:36.379Z,34.31
2022-12-11T08:26:07.402Z,34.20
2022-12-11T08:28:35.962Z,34.21
2022-12-11T08:31:05.429Z,33.90
2022-12-11T08:33:34.015Z,34.08
2022-12-11T08:36:03.862Z,33.92
2022-12-11T08:38:33.642Z,34.05
2022-12-11T08:41:09.812Z,33.49
2022-12-11T08:43:38.403Z,33.91
2022-12-11T08:46:07.358Z,34.17
2022-12-11T08:48:36.745Z,34.18
2022-12-11T08:51:06.753Z,33.81
2022-12-11T08:53:36.559Z,33.85
2022-12-11T08:56:04.964Z,33.90
2022-12-11T08:58:33.596Z,33.93
2022-12-11T09:01:02.019Z,34.02
2022-12-11T09:03:30.552Z,34.04
2022-12-11T09:05:58.701Z,33.90
2022-12-11T09:08:27.995Z,33.83
2022-12-11T09:10:57.893Z,33.89
2022-12-11T09:13:26.360Z,33.96
2022-12-11T09:15:54.478Z,33.66
2022-12-11T09:18:22.916Z,33.67
2022-12-11T09:20:59.756Z,33.20
2022-12-11T09:23:28.367Z,33.88
2022-12-11T09:25:58.228Z,33.63
2022-12-11T09:28:26.983Z,33.75
2022-12-11T09:30:55.249Z,33.95
2022-12-11T09:33:23.770Z,33.86
2022-12-11T09:35:58.829Z,33.35
2022-12-11T09:38:27.639Z,33.76
2022-12-11T09:40:57.307Z,33.46
2022-12-11T09:43:34.644Z,32.92
2022-12-11T09:46:04.733Z,33.11
2022-12-11T09:48:34.144Z,33.09
2022-12-11T09:51:06.975Z,32.75
2022-12-11T09:53:37.707Z,32.90
2022-12-11T09:56:14.912Z,32.39
2022-12-11T09:58:55.108Z,32.12
2022-12-11T10:01:28.994Z,31.99
2022-12-11T10:04:17.409Z,31.76
2022-12-11T10:06:50.052Z,32.09
2022-12-11T10:09:21.372Z,31.64
2022-12-11T10:12:03.123Z,31.46
2022-12-11T10:14:41.279Z,31.43
2022-12-11T10:17:12.706Z,31.73
2022-12-11T10:19:42.369Z,31.78
2022-12-11T10:22:17.483Z,31.58
2022-12-11T10:27:41.743Z,31.77
2022-12-11T10:30:17.007Z,31.87
2022-12-11T10:32:52.394Z,31.99
2022-12-11T10:35:28.450Z,32.14
2022-12-11T10:37:58.922Z,32.48
2022-12-11T10:40:27.415Z,32.85
2022-12-11T10:42:57.246Z,32.77
2022-12-11T10:45:25.670Z,33.00
2022-12-11T10:48:03.603Z,32.09
2022-12-11T10:50:32.180Z,32.91
2022-12-11T10:53:00.340Z,33.07
2022-12-11T10:55:30.163Z,32.86
2022-12-11T10:58:02.272Z,32.54
2022-12-11T11:00:34.663Z,32.50
2022-12-11T11:03:03.633Z,32.54
2022-12-11T11:05:34.930Z,32.55
2022-12-11T11:08:15.451Z,31.75
2022-12-11T11:10:54.928Z,31.72
2022-12-11T11:13:26.961Z,32.13
2022-12-11T11:16:01.459Z,31.93
2022-12-11T11:18:31.078Z,32.32
2022-12-11T11:21:00.713Z,32.46
2022-12-11T11:23:29.531Z,32.25
2022-12-11T11:25:59.960Z,31.89
2022-12-11T11:28:31.506Z,31.94
2022-12-11T11:31:02.954Z,32.00
2022-12-11T11:33:32.576Z,32.36
2022-12-11T11:36:02.926Z,32.32
2022-12-11T11:38:34.109Z,32.29
2022-12-11T11:41:14.675Z,32.10
2022-12-11T11:43:47.633Z,32.08
2022-12-11T11:46:19.611Z,31.88
2022-12-11T11:48:53.018Z,31.85
2022-12-11T11:51:27.055Z,32.42
2022-12-11T11:53:58.382Z,32.49
2022-12-11T11:56:28.400Z,32.69
2022-12-11T11:59:07.521Z,32.33
2022-12-11T12:01:36.127Z,32.81
2022-12-11T12:04:05.997Z,32.57
2022-12-11T12:06:57.702Z,31.77
2022-12-11T12:09:35.337Z,32.07
2022-12-11T12:12:12.974Z,31.99
2022-12-11T12:14:53.440Z,31.85
2022-12-11T12:17:27.214Z,32.11
2022-12-11T12:20:01.425Z,32.52
2022-12-11T12:22:39.479Z,32.15
2022-12-11T12:25:17.647Z,32.05
2022-12-11T12:27:53.146Z,32.58
2022-12-11T12:30:23.986Z,32.79
2022-12-11T12:33:03.403Z,32.63
2022-12-11T12:35:35.867Z,32.85
2022-12-11T12:38:10.323Z,33.06
2022-12-11T12:40:46.773Z,32.90
2022-12-11T12:43:34.108Z,32.48
2022-12-11T12:46:11.987Z,32.80
2022-12-11T12:48:40.556Z,33.12
2022-12-11T12:51:10.990Z,33.00
2022-12-11T12:53:39.710Z,33.10
2022-12-11T12:56:08.873Z,32.75
2022-12-11T12:58:43.091Z,32.47
2022-12-11T13:01:17.816Z,32.59
2022-12-11T13:03:55.902Z,32.33
2022-12-11T13:06:32.964Z,32.57
2022-12-11T13:09:13.876Z,32.46
2022-12-11T13:11:42.262Z,32.97
2022-12-11T13:14:27.314Z,32.41
2022-12-11T13:17:09.335Z,32.67
2022-12-11T13:19:42.600Z,33.20
2022-12-11T13:22:24.574Z,32.48
2022-12-11T13:25:01.875Z,32.94
2022-12-11T13:27:39.550Z,33.26
2022-12-11T13:30:17.999Z,33.58
2022-12-11T13:32:56.633Z,33.06
2022-12-11T13:35:25.704Z,33.38
2022-12-11T13:37:55.429Z,33.59
2022-12-11T13:40:27.660Z,33.48
2022-12-11T13:42:57.425Z,33.85
2022-12-11T13:45:29.158Z,33.64
2022-12-11T13:48:00.013Z,33.94
2022-12-11T13:50:31.159Z,33.92
2022-12-11T13:53:01.123Z,34.15
2022-12-11T13:55:32.381Z,34.11
2022-12-11T13:58:00.842Z,34.17
2022-12-11T14:00:32.908Z,34.28
2022-12-11T14:03:07.517Z,34.02
2022-12-11T14:05:36.637Z,34.49
2022-12-11T14:08:10.122Z,34.21
2022-12-11T14:10:38.972Z,34.65
2022-12-11T14:13:14.968Z,34.39
2022-12-11T14:15:45.556Z,34.16
2022-12-11T14:18:16.468Z,33.94
2022-12-11T14:20:44.960Z,32.94
2022-12-11T14:23:18.753Z,34.15
2022-12-11T14:25:54.444Z,33.98
2022-12-11T14:28:27.514Z,34.38
2022-12-11T14:30:59.275Z,34.44
2022-12-11T14:33:33.520Z,34.21
2022-12-11T14:36:03.105Z,34.56
2022-12-11T14:38:34.217Z,34.22
2022-12-11T14:41:05.301Z,34.33
2022-12-11T14:43:36.460Z,34.31
2022-12-11T14:46:09.087Z,34.24
2022-12-11T14:48:47.273Z,34.27
2022-12-11T14:51:19.235Z,34.57
2022-12-11T14:53:49.349Z,34.92
2022-12-11T14:56:20.087Z,34.96
2022-12-11T14:58:54.843Z,34.82
2022-12-11T15:01:25.285Z,35.13
2022-12-11T15:04:06.629Z,34.73
2022-12-11T15:06:36.669Z,35.39
2022-12-11T15:09:18.514Z,34.77
2022-12-11T15:11:48.472Z,35.09
2022-12-11T15:14:17.932Z,35.42
2022-12-11T15:16:47.167Z,35.34
2022-12-11T15:19:23.563Z,34.94
2022-12-11T15:21:52.862Z,35.36
2022-12-11T15:24:27.329Z,35.32
2022-12-11T15:26:59.267Z,35.06
2022-12-11T15:29:33.353Z,34.78
2022-12-11T15:32:04.389Z,35.08
2022-12-11T15:34:44.420Z,34.44
2022-12-11T15:37:19.857Z,34.72
2022-12-11T15:39:48.014Z,34.74
2022-12-11T15:42:20.303Z,34.98
2022-12-11T15:44:48.449Z,35.04
2022-12-11T15:47:18.460Z,34.98
2022-12-11T15:49:47.966Z,34.91
2022-12-11T15:52:16.327Z,35.00
2022-12-11T15:54:44.488Z,34.99
2022-12-11T15:57:17.777Z,34.83
2022-12-11T15:59:47.612Z,34.96
2022-12-11T16:02:16.471Z,34.96
2022-12-11T16:04:44.915Z,34.44
2022-12-11T16:07:18.788Z,34.26
2022-12-11T16:09:47.400Z,34.50
2022-12-11T16:12:16.320Z,34.68
2022-12-11T16:14:45.060Z,34.65
2022-12-11T16:17:14.561Z,34.75
2022-12-11T16:19:43.904Z,34.80
2022-12-11T16:22:13.722Z,34.67
2022-12-11T16:24:43.509Z,34.34
2022-12-11T16:27:11.960Z,34.53
2022-12-11T16:29:42.372Z,34.34
2022-12-11T16:32:11.340Z,34.43
2022-12-11T16:34:40.225Z,34.39
2022-12-11T16:37:09.642Z,34.19
2022-12-11T16:39:39.473Z,34.30
2022-12-11T16:42:09.344Z,34.20
2022-12-11T16:44:42.511Z,34.46
2022-12-11T16:47:12.525Z,34.16
2022-12-11T16:49:40.941Z,34.15
2022-12-11T16:52:09.460Z,34.48
2022-12-11T16:54:37.788Z,34.25
2022-12-11T16:57:06.396Z,34.14
2022-12-11T16:59:37.700Z,34.19
2022-12-11T17:02:06.624Z,34.06
2022-12-11T17:04:34.899Z,34.26
2022-12-11T17:07:03.430Z,34.41
2022-12-11T17:09:31.701Z,33.99
2022-12-11T17:12:00.426Z,34.24
2022-12-11T17:14:28.995Z,34.37
2022-12-11T17:16:58.947Z,33.92
2022-12-11T17:19:27.117Z,34.12
2022-12-11T17:21:56.195Z,34.14
2022-12-11T17:24:24.341Z,34.10
2022-12-11T17:26:52.870Z,34.36
2022-12-11T17:29:21.369Z,34.17
2022-12-11T17:31:49.863Z,34.30
2022-12-11T17:34:19.447Z,34.15
2022-12-11T17:36:48.492Z,34.50
2022-12-11T17:39:16.711Z,34.45
2022-12-11T17:41:56.346Z,34.43
2022-12-11T17:44:26.686Z,34.45
2022-12-11T17:46:55.370Z,34.53
2022-12-11T17:49:24.960Z,34.54
2022-12-11T17:51:55.489Z,34.65
2022-12-11T17:54:24.082Z,34.62
2022-12-11T17:56:52.689Z,34.33
2022-12-11T17:59:20.803Z,34.68
2022-12-11T18:01:49.322Z,34.39
2022-12-11T18:04:17.467Z,34.22
2022-12-11T18:06:47.470Z,34.06
2022-12-11T18:09:18.027Z,34.24
2022-12-11T18:11:46.779Z,33.94
2022-12-11T18:14:17.444Z,33.82
2022-12-11T18:16:46.349Z,32.67
2022-12-11T18:19:15.476Z,34.11
2022-12-11T18:21:47.373Z,33.77
2022-12-11T18:24:15.898Z,33.81
2022-12-11T18:26:44.561Z,33.98
2022-12-11T18:29:13.017Z,33.83
2022-12-11T18:31:42.865Z,33.82
2022-12-11T18:34:11.865Z,33.83
2022-12-11T18:36:41.520Z,33.87
2022-12-11T18:39:11.117Z,33.79
2022-12-11T18:41:40.089Z,34.01
2022-12-11T18:44:10.126Z,33.83
2022-12-11T18:46:39.686Z,33.71
2022-12-11T18:49:08.243Z,34.15
2022-12-11T18:51:37.402Z,34.06
2022-12-11T18:54:05.624Z,34.01
2022-12-11T18:56:35.561Z,34.08
2022-12-11T18:59:04.692Z,33.85
2022-12-11T19:01:34.742Z,33.98
2022-12-11T19:04:06.667Z,34.23
2022-12-11T19:06:37.522Z,34.14
2022-12-11T19:09:07.025Z,34.12
2022-12-11T19:11:37.518Z,34.09
2022-12-11T19:14:06.343Z,34.20
2022-12-11T19:16:37.245Z,34.26
2022-12-11T19:19:09.902Z,34.26
2022-12-11T19:21:38.713Z,34.24
2022-12-11T19:24:08.137Z,34.13
2022-12-11T19:26:38.146Z,34.01
2022-12-11T19:29:06.281Z,34.08
2022-12-11T19:31:35.179Z,34.12
2022-12-11T19:34:04.038Z,33.91
2022-12-11T19:36:33.733Z,34.02
2022-12-11T19:39:05.036Z,34.04
2022-12-11T19:41:37.019Z,33.82
2022-12-11T19:44:05.432Z,33.82
2022-12-11T19:46:34.041Z,33.83
2022-12-11T19:49:02.731Z,33.69
2022-12-11T19:51:33.866Z,33.23
2022-12-11T19:54:02.964Z,33.50
2022-12-11T19:56:32.067Z,33.49
2022-12-11T19:59:03.090Z,33.41
2022-12-11T20:01:32.493Z,32.27
2022-12-11T20:04:02.409Z,33.25
2022-12-11T20:06:32.344Z,33.41
2022-12-11T20:09:00.847Z,33.47
2022-12-11T20:11:29.535Z,33.39
2022-12-11T20:13:57.771Z,33.52
2022-12-11T20:16:53.777Z,33.35
2022-12-11T20:19:15.870Z,33.51
2022-12-11T20:21:44.418Z,33.42
2022-12-11T20:24:12.620Z,33.25
2022-12-11T20:26:41.260Z,33.17
2022-12-11T20:29:09.637Z,33.32
2022-12-11T20:31:39.557Z,33.25
2022-12-11T20:34:08.670Z,33.38
2022-12-11T20:36:37.051Z,33.45
2022-12-11T20:39:05.357Z,33.23
2022-12-11T20:41:33.905Z,33.33
2022-12-11T20:44:02.730Z,33.17
2022-12-11T20:46:31.253Z,33.38
2022-12-11T20:49:00.796Z,33.30
2022-12-11T20:51:30.012Z,33.17
2022-12-11T20:53:59.412Z,33.40
2022-12-11T20:56:29.885Z,33.15
2022-12-11T20:58:58.724Z,33.20
2022-12-11T21:01:29.248Z,33.16
2022-12-11T21:03:58.045Z,33.23
2022-12-11T21:06:31.450Z,33.28
2022-12-11T21:09:01.238Z,33.44
2022-12-11T21:11:29.856Z,33.30
2022-12-11T21:13:58.203Z,33.35
2022-12-11T21:16:26.920Z,33.33
2022-12-11T21:18:56.033Z,33.60
2022-12-11T21:21:24.873Z,33.23
2022-12-11T21:23:54.492Z,33.39
2022-12-11T21:26:23.027Z,33.38
2022-12-11T21:28:51.287Z,33.38
2022-12-11T21:31:21.552Z,33.42
2022-12-11T21:33:50.347Z,33.20
2022-12-11T21:36:19.045Z,33.36
2022-12-11T21:38:47.783Z,33.45
2022-12-11T21:41:19.812Z,33.05
2022-12-11T21:46:37.736Z,33.26
2022-12-11T21:49:06.009Z,33.40
2022-12-11T21:51:39.475Z,33.41
2022-12-11T21:54:14.529Z,33.26
2022-12-11T21:56:44.732Z,33.53
2022-12-11T21:59:13.148Z,33.66
2022-12-11T22:01:46.049Z,33.44
2022-12-11T22:04:15.834Z,33.65
2022-12-11T22:06:47.201Z,33.31
2022-12-11T22:09:16.362Z,33.34
2022-12-11T22:11:47.492Z,33.36
2022-12-11T22:14:16.804Z,33.75
2022-12-11T22:16:45.528Z,33.75
2022-12-11T22:19:14.121Z,33.62
2022-12-11T22:21:42.657Z,33.79
2022-12-11T22:24:10.869Z,33.77
2022-12-11T22:26:39.238Z,33.93
2022-12-11T22:29:09.152Z,33.80
2022-12-11T22:31:37.730Z,34.06
2022-12-11T22:34:05.916Z,34.13
2022-12-11T22:36:35.061Z,33.92
2022-12-11T22:39:05.254Z,33.72
2022-12-11T22:41:34.202Z,33.63
2022-12-11T22:44:02.848Z,33.69
2022-12-11T22:46:32.919Z,33.57
2022-12-11T22:49:01.271Z,33.40
2022-12-11T22:51:29.717Z,33.48
2022-12-11T22:53:59.270Z,33.42
2022-12-11T22:56:27.899Z,33.54
2022-12-11T22:58:57.545Z,33.68
2022-12-11T23:01:27.927Z,33.33
2022-12-11T23:04:00.174Z,33.32
2022-12-11T23:06:28.716Z,33.43
2022-12-11T23:08:59.459Z,33.23
2022-12-11T23:11:29.921Z,33.51
2022-12-11T23:13:58.509Z,33.75
2022-12-11T23:16:28.435Z,33.48
2022-12-11T23:18:58.812Z,33.25
2022-12-11T23:21:28.926Z,33.32
2022-12-11T23:24:01.134Z,33.58
2022-12-11T23:26:30.219Z,33.69
2022-12-11T23:28:59.436Z,33.89
2022-12-11T23:31:28.480Z,33.81
2022-12-11T23:34:01.482Z,33.69
2022-12-11T23:36:30.836Z,33.93
2022-12-11T23:38:59.355Z,33.76
2022-12-11T23:41:27.787Z,33.87
2022-12-11T23:43:55.945Z,33.71
2022-12-11T23:46:26.149Z,33.70
2022-12-11T23:48:55.388Z,33.75
2022-12-11T23:51:26.688Z,33.54
2022-12-11T23:53:55.478Z,33.57
2022-12-11T23:56:25.731Z,33.61
2022-12-11T23:58:54.348Z,33.76
